Radar AviationWeather DUATS TFRs Wunderground Accuweather Weather.com

alt : Radar

TAFs

KJXN 251138Z 2512/2612 35010KT 2SM BR OVC004
   FM251300 35012KT 4SM BR OVC008
   FM251400 35012G21KT P6SM OVC015
   FM251500 35012G21KT P6SM BKN035
   FM260000 33006KT P6SM SKC
KJXN 251138Z 2512/2612 35010KT 2SM BR OVC004
   FM251300 35012KT 4SM BR OVC008
   FM251400 35012G21KT P6SM OVC015
   FM251500 35012G21KT P6SM BKN035
   FM260000 33006KT P6SM SKC
KFWA 251130Z 2512/2612 34008KT P6SM SCT007 OVC015
     TEMPO 2512/2513 BKN007
   FM251400 34011KT P6SM BKN015
   FM251700 34012G18KT P6SM SCT040
   FM260000 33006KT P6SM SKC
KFWA 251130Z 2512/2612 34008KT P6SM SCT007 OVC015
     TEMPO 2512/2513 BKN007
   FM251400 34011KT P6SM BKN015
   FM251700 34012G18KT P6SM SCT040
   FM260000 33006KT P6SM SKC
KTOL 251126Z 2512/2612 34007KT 2SM BR OVC003
   FM251500 35012KT 6SM BR OVC012
   FM251800 35012KT P6SM OVC045
   FM252200 34010KT P6SM SCT070
   FM260200 02008KT P6SM SCT150
   FM260500 VRB03KT P6SM FEW250
KTOL 251126Z 2512/2612 34007KT 2SM BR OVC003
   FM251500 35012KT 6SM BR OVC012
   FM251800 35012KT P6SM OVC045
   FM252200 34010KT P6SM SCT070
   FM260200 02008KT P6SM SCT150
   FM260500 VRB03KT P6SM FEW250
KFDY 251126Z 2512/2612 34006KT 2SM BR OVC003
     TEMPO 2512/2514 3/4SM BR OVC001
   FM251400 34007KT 3SM BR OVC008
   FM251600 35010KT P6SM BKN008
   FM251800 35010KT P6SM BKN015
   FM252100 34011KT P6SM BKN040
   FM252300 36009KT P6SM SCT080
   FM260700 VRB03KT P6SM SCT200
KCLE 251126Z 2512/2618 35005KT 2SM -DZ BR OVC003
     TEMPO 2512/2515 1SM -DZ BR OVC006
   FM251500 32007KT 3SM BR VCSH OVC006
   FM251800 33009KT 6SM BR OVC012
   FM252100 33011KT P6SM OVC025
   FM260300 35010KT P6SM SCT025
   FM261100 VRB03KT P6SM SCT120
KDTW 251123Z 2512/2618 34013KT 6SM -RA BR OVC007
   FM251400 34013KT P6SM BKN015 OVC025
   FM251700 34013G20KT P6SM SCT025 BKN040
   FM260200 32005KT P6SM SCT045
   FM261000 27003KT 3SM BR SKC
KDTW 251123Z 2512/2618 34013KT 6SM -RA BR OVC007
   FM251400 34013KT P6SM BKN015 OVC025
   FM251700 34013G20KT P6SM SCT025 BKN040
   FM260200 32005KT P6SM SCT045
   FM261000 27003KT 3SM BR SKC

METARs

KJXN 251156Z 32008G18KT 2SM BR OVC003 08/07 A2997 RMK AO2 SLP151 60000 70004 T00780072 10111 20078 53015
KDUH 251155Z AUTO 34005KT 3SM BR OVC005 11/10 A2992 RMK AO2 T01140100 10115 20100
KFWA 251154Z 35009KT 10SM SCT016 BKN023 BKN210 12/10 A2996 RMK AO2 SLP145 60000 T01170100 10117 20100 53007
KDTW 251153Z 35006KT 4SM BR SCT007 BKN012 OVC020 11/09 A2991 RMK AO2 RAE33DZB33E47 SLP131 P0000 60002 70022 T01110089 10111 20100 53003
KFDY 251153Z AUTO 34006KT 3/4SM BR OVC002 11/09 A2990 RMK AO2 RAB1058E19 SLP123 P0000 60001 70031 T01060089 10106 20100 53008 $
KTDZ 251153Z AUTO 35007KT 5SM BR OVC004 11/10 A2992 RMK AO2 SLP132 70009 T01060100 10106 20083 53004
KTOL 251152Z 35006KT 5SM BR OVC005 11/11 A2992 RMK AO2 SLP132 60001 70008 T01110111 10111 20094 53006 $
KCLE 251151Z 02004KT 1/2SM -RA FG OVC004 11/10 A2989 RMK AO2 TWR VIS 1 SLP122 P0000 60003 70030 T01110100 10117 20100 51003

alt : Satellite

alt : TFRs